sensor_id;sensor_type;location;lat;lon;timestamp;P1;durP1;ratioP1;P2;durP2;ratioP2
8488;SDS011;4281;45.772;12.852;2023-05-18T00:01:49;2.27;;;1.17;;
8488;SDS011;4281;45.772;12.852;2023-05-18T00:04:19;2.17;;;1.00;;
8488;SDS011;4281;45.772;12.852;2023-05-18T00:06:49;1.20;;;1.10;;
8488;SDS011;4281;45.772;12.852;2023-05-18T00:09:22;1.20;;;1.10;;
8488;SDS011;4281;45.772;12.852;2023-05-18T00:11:52;2.60;;;1.20;;
8488;SDS011;4281;45.772;12.852;2023-05-18T00:14:21;0.90;;;0.90;;
8488;SDS011;4281;45.772;12.852;2023-05-18T00:16:49;0.90;;;0.90;;
8488;SDS011;4281;45.772;12.852;2023-05-18T00:19:19;1.00;;;0.97;;
8488;SDS011;4281;45.772;12.852;2023-05-18T00:21:48;1.27;;;1.00;;
8488;SDS011;4281;45.772;12.852;2023-05-18T00:24:16;1.40;;;0.90;;
8488;SDS011;4281;45.772;12.852;2023-05-18T00:26:45;1.00;;;0.90;;
8488;SDS011;4281;45.772;12.852;2023-05-18T00:29:14;0.87;;;0.80;;
8488;SDS011;4281;45.772;12.852;2023-05-18T00:31:43;0.90;;;0.90;;
8488;SDS011;4281;45.772;12.852;2023-05-18T00:34:12;1.00;;;0.90;;
8488;SDS011;4281;45.772;12.852;2023-05-18T00:36:41;1.40;;;1.10;;
8488;SDS011;4281;45.772;12.852;2023-05-18T00:39:09;0.90;;;0.80;;
8488;SDS011;4281;45.772;12.852;2023-05-18T00:41:37;2.20;;;1.00;;
8488;SDS011;4281;45.772;12.852;2023-05-18T00:44:05;0.80;;;0.80;;
8488;SDS011;4281;45.772;12.852;2023-05-18T00:46:33;0.70;;;0.70;;
8488;SDS011;4281;45.772;12.852;2023-05-18T00:49:03;1.10;;;0.77;;
8488;SDS011;4281;45.772;12.852;2023-05-18T00:51:31;0.90;;;0.90;;
8488;SDS011;4281;45.772;12.852;2023-05-18T00:54:00;1.10;;;0.90;;
8488;SDS011;4281;45.772;12.852;2023-05-18T00:56:28;1.00;;;0.93;;
8488;SDS011;4281;45.772;12.852;2023-05-18T00:59:00;1.30;;;1.00;;
8488;SDS011;4281;45.772;12.852;2023-05-18T01:01:29;0.80;;;0.80;;
8488;SDS011;4281;45.772;12.852;2023-05-18T01:04:00;0.90;;;0.90;;
8488;SDS011;4281;45.772;12.852;2023-05-18T01:06:30;0.80;;;0.80;;
8488;SDS011;4281;45.772;12.852;2023-05-18T01:09:03;1.10;;;1.03;;
8488;SDS011;4281;45.772;12.852;2023-05-18T01:11:37;1.10;;;1.00;;
8488;SDS011;4281;45.772;12.852;2023-05-18T01:14:12;1.53;;;0.90;;
8488;SDS011;4281;45.772;12.852;2023-05-18T01:16:43;1.27;;;0.97;;
8488;SDS011;4281;45.772;12.852;2023-05-18T01:19:22;3.23;;;1.03;;
8488;SDS011;4281;45.772;12.852;2023-05-18T01:22:29;1.47;;;0.90;;
8488;SDS011;4281;45.772;12.852;2023-05-18T01:25:02;1.30;;;0.80;;
8488;SDS011;4281;45.772;12.852;2023-05-18T01:27:33;0.70;;;0.70;;
8488;SDS011;4281;45.772;12.852;2023-05-18T01:30:03;1.20;;;1.10;;
8488;SDS011;4281;45.772;12.852;2023-05-18T01:32:37;3.27;;;1.10;;
8488;SDS011;4281;45.772;12.852;2023-05-18T01:35:07;1.00;;;1.00;;
8488;SDS011;4281;45.772;12.852;2023-05-18T01:37:35;1.23;;;1.10;;
8488;SDS011;4281;45.772;12.852;2023-05-18T01:40:03;0.87;;;0.80;;
8488;SDS011;4281;45.772;12.852;2023-05-18T01:42:36;2.10;;;1.00;;
8488;SDS011;4281;45.772;12.852;2023-05-18T01:45:06;0.90;;;0.90;;
8488;SDS011;4281;45.772;12.852;2023-05-18T01:47:36;1.13;;;0.80;;
8488;SDS011;4281;45.772;12.852;2023-05-18T01:50:07;1.07;;;1.00;;
8488;SDS011;4281;45.772;12.852;2023-05-18T01:52:38;1.17;;;1.07;;
8488;SDS011;4281;45.772;12.852;2023-05-18T01:55:09;1.13;;;1.10;;
8488;SDS011;4281;45.772;12.852;2023-05-18T01:57:40;1.20;;;1.10;;
8488;SDS011;4281;45.772;12.852;2023-05-18T02:00:09;1.37;;;1.27;;
8488;SDS011;4281;45.772;12.852;2023-05-18T02:02:38;1.37;;;1.00;;
8488;SDS011;4281;45.772;12.852;2023-05-18T02:05:07;1.20;;;1.10;;
8488;SDS011;4281;45.772;12.852;2023-05-18T02:07:37;1.50;;;1.20;;
8488;SDS011;4281;45.772;12.852;2023-05-18T02:10:06;1.37;;;1.20;;
8488;SDS011;4281;45.772;12.852;2023-05-18T02:12:35;1.40;;;1.30;;
8488;SDS011;4281;45.772;12.852;2023-05-18T02:15:04;1.17;;;1.07;;
8488;SDS011;4281;45.772;12.852;2023-05-18T02:17:33;1.97;;;1.40;;
8488;SDS011;4281;45.772;12.852;2023-05-18T02:20:02;1.40;;;1.30;;
8488;SDS011;4281;45.772;12.852;2023-05-18T02:22:33;1.40;;;1.30;;
8488;SDS011;4281;45.772;12.852;2023-05-18T02:25:01;1.20;;;1.10;;
8488;SDS011;4281;45.772;12.852;2023-05-18T02:27:30;1.53;;;1.43;;
8488;SDS011;4281;45.772;12.852;2023-05-18T02:29:58;1.40;;;1.30;;
8488;SDS011;4281;45.772;12.852;2023-05-18T02:32:30;1.57;;;1.37;;
8488;SDS011;4281;45.772;12.852;2023-05-18T02:34:58;1.57;;;1.03;;
8488;SDS011;4281;45.772;12.852;2023-05-18T02:37:27;1.30;;;1.20;;
8488;SDS011;4281;45.772;12.852;2023-05-18T02:39:55;2.00;;;1.40;;
8488;SDS011;4281;45.772;12.852;2023-05-18T02:42:23;2.13;;;1.37;;
8488;SDS011;4281;45.772;12.852;2023-05-18T02:44:51;1.50;;;1.10;;
8488;SDS011;4281;45.772;12.852;2023-05-18T02:47:19;1.17;;;1.10;;
8488;SDS011;4281;45.772;12.852;2023-05-18T02:49:48;1.33;;;1.20;;
8488;SDS011;4281;45.772;12.852;2023-05-18T02:52:16;1.40;;;1.30;;
8488;SDS011;4281;45.772;12.852;2023-05-18T02:54:44;1.50;;;1.40;;
8488;SDS011;4281;45.772;12.852;2023-05-18T02:57:12;1.40;;;1.30;;
8488;SDS011;4281;45.772;12.852;2023-05-18T02:59:40;1.50;;;1.37;;
8488;SDS011;4281;45.772;12.852;2023-05-18T03:02:08;1.47;;;1.37;;
8488;SDS011;4281;45.772;12.852;2023-05-18T03:04:39;1.90;;;1.40;;
8488;SDS011;4281;45.772;12.852;2023-05-18T03:07:09;1.40;;;1.30;;
8488;SDS011;4281;45.772;12.852;2023-05-18T03:09:37;1.50;;;1.40;;
8488;SDS011;4281;45.772;12.852;2023-05-18T03:12:05;1.60;;;1.47;;
8488;SDS011;4281;45.772;12.852;2023-05-18T03:14:33;2.30;;;1.40;;
8488;SDS011;4281;45.772;12.852;2023-05-18T03:17:01;1.70;;;1.60;;
8488;SDS011;4281;45.772;12.852;2023-05-18T03:19:31;1.50;;;1.40;;
8488;SDS011;4281;45.772;12.852;2023-05-18T03:22:00;2.10;;;1.33;;
8488;SDS011;4281;45.772;12.852;2023-05-18T03:24:30;2.27;;;1.23;;
8488;SDS011;4281;45.772;12.852;2023-05-18T03:27:05;1.60;;;1.50;;
8488;SDS011;4281;45.772;12.852;2023-05-18T03:29:33;1.60;;;1.50;;
8488;SDS011;4281;45.772;12.852;2023-05-18T03:32:01;1.93;;;1.47;;
8488;SDS011;4281;45.772;12.852;2023-05-18T03:34:29;1.63;;;1.10;;
8488;SDS011;4281;45.772;12.852;2023-05-18T03:36:57;1.83;;;1.30;;
8488;SDS011;4281;45.772;12.852;2023-05-18T03:39:25;2.07;;;1.50;;
8488;SDS011;4281;45.772;12.852;2023-05-18T03:41:54;1.30;;;1.20;;
8488;SDS011;4281;45.772;12.852;2023-05-18T03:44:22;1.60;;;1.50;;
8488;SDS011;4281;45.772;12.852;2023-05-18T03:46:50;1.93;;;1.47;;
8488;SDS011;4281;45.772;12.852;2023-05-18T03:49:18;2.63;;;1.63;;
8488;SDS011;4281;45.772;12.852;2023-05-18T03:51:46;1.70;;;1.60;;
8488;SDS011;4281;45.772;12.852;2023-05-18T03:54:14;2.40;;;1.50;;
8488;SDS011;4281;45.772;12.852;2023-05-18T03:56:42;2.27;;;1.50;;
8488;SDS011;4281;45.772;12.852;2023-05-18T03:59:11;2.70;;;1.47;;
8488;SDS011;4281;45.772;12.852;2023-05-18T04:01:39;1.40;;;1.30;;
8488;SDS011;4281;45.772;12.852;2023-05-18T04:04:09;1.73;;;1.50;;
8488;SDS011;4281;45.772;12.852;2023-05-18T04:06:43;1.60;;;1.40;;
8488;SDS011;4281;45.772;12.852;2023-05-18T04:09:12;1.60;;;1.50;;
8488;SDS011;4281;45.772;12.852;2023-05-18T04:11:42;2.03;;;1.63;;
8488;SDS011;4281;45.772;12.852;2023-05-18T04:14:11;1.73;;;1.50;;
8488;SDS011;4281;45.772;12.852;2023-05-18T04:16:40;2.13;;;1.47;;
8488;SDS011;4281;45.772;12.852;2023-05-18T04:19:08;2.00;;;1.60;;
8488;SDS011;4281;45.772;12.852;2023-05-18T04:21:36;1.63;;;1.53;;
8488;SDS011;4281;45.772;12.852;2023-05-18T04:24:05;1.57;;;1.33;;
8488;SDS011;4281;45.772;12.852;2023-05-18T04:26:34;1.43;;;1.33;;
8488;SDS011;4281;45.772;12.852;2023-05-18T04:29:03;1.60;;;1.40;;
8488;SDS011;4281;45.772;12.852;2023-05-18T04:31:34;1.97;;;1.57;;
8488;SDS011;4281;45.772;12.852;2023-05-18T04:34:02;1.70;;;1.40;;
8488;SDS011;4281;45.772;12.852;2023-05-18T04:36:30;2.20;;;1.77;;
8488;SDS011;4281;45.772;12.852;2023-05-18T04:39:00;1.60;;;1.50;;
8488;SDS011;4281;45.772;12.852;2023-05-18T04:41:33;1.37;;;1.27;;
8488;SDS011;4281;45.772;12.852;2023-05-18T04:44:01;2.27;;;1.60;;
8488;SDS011;4281;45.772;12.852;2023-05-18T04:46:29;1.37;;;1.27;;
8488;SDS011;4281;45.772;12.852;2023-05-18T04:49:00;2.27;;;1.40;;
8488;SDS011;4281;45.772;12.852;2023-05-18T04:51:28;1.83;;;1.20;;
8488;SDS011;4281;45.772;12.852;2023-05-18T04:53:56;1.57;;;1.30;;
8488;SDS011;4281;45.772;12.852;2023-05-18T04:56:24;1.93;;;1.40;;
8488;SDS011;4281;45.772;12.852;2023-05-18T04:58:52;1.30;;;1.20;;
8488;SDS011;4281;45.772;12.852;2023-05-18T05:01:24;2.43;;;1.30;;
8488;SDS011;4281;45.772;12.852;2023-05-18T05:03:52;1.40;;;1.30;;
8488;SDS011;4281;45.772;12.852;2023-05-18T05:06:25;1.47;;;1.37;;
8488;SDS011;4281;45.772;12.852;2023-05-18T05:08:53;1.43;;;1.30;;
8488;SDS011;4281;45.772;12.852;2023-05-18T05:11:22;1.60;;;1.50;;
8488;SDS011;4281;45.772;12.852;2023-05-18T05:13:51;1.80;;;1.37;;
8488;SDS011;4281;45.772;12.852;2023-05-18T05:16:19;3.00;;;1.50;;
8488;SDS011;4281;45.772;12.852;2023-05-18T05:18:47;1.60;;;1.50;;
8488;SDS011;4281;45.772;12.852;2023-05-18T05:21:14;2.20;;;1.60;;
8488;SDS011;4281;45.772;12.852;2023-05-18T05:23:44;1.60;;;1.50;;
8488;SDS011;4281;45.772;12.852;2023-05-18T05:26:12;1.70;;;1.60;;
8488;SDS011;4281;45.772;12.852;2023-05-18T05:28:40;1.77;;;1.30;;
8488;SDS011;4281;45.772;12.852;2023-05-18T05:31:07;2.77;;;1.47;;
8488;SDS011;4281;45.772;12.852;2023-05-18T05:33:35;1.80;;;1.30;;
8488;SDS011;4281;45.772;12.852;2023-05-18T05:36:03;1.33;;;1.23;;
8488;SDS011;4281;45.772;12.852;2023-05-18T05:38:33;1.63;;;1.20;;
8488;SDS011;4281;45.772;12.852;2023-05-18T05:41:02;1.30;;;1.20;;
8488;SDS011;4281;45.772;12.852;2023-05-18T05:43:31;1.53;;;1.30;;
8488;SDS011;4281;45.772;12.852;2023-05-18T05:45:58;1.67;;;1.57;;
8488;SDS011;4281;45.772;12.852;2023-05-18T05:48:26;2.10;;;1.90;;
8488;SDS011;4281;45.772;12.852;2023-05-18T05:50:54;3.70;;;2.03;;
8488;SDS011;4281;45.772;12.852;2023-05-18T05:53:23;2.07;;;1.63;;
8488;SDS011;4281;45.772;12.852;2023-05-18T05:55:51;1.60;;;1.50;;
8488;SDS011;4281;45.772;12.852;2023-05-18T05:58:20;1.47;;;1.23;;
8488;SDS011;4281;45.772;12.852;2023-05-18T06:00:48;3.07;;;1.30;;
8488;SDS011;4281;45.772;12.852;2023-05-18T06:03:16;1.67;;;1.40;;
8488;SDS011;4281;45.772;12.852;2023-05-18T06:05:44;1.20;;;1.10;;
8488;SDS011;4281;45.772;12.852;2023-05-18T06:08:12;1.23;;;1.10;;
8488;SDS011;4281;45.772;12.852;2023-05-18T06:10:41;1.00;;;0.90;;
8488;SDS011;4281;45.772;12.852;2023-05-18T06:13:09;1.43;;;1.10;;
8488;SDS011;4281;45.772;12.852;2023-05-18T06:15:38;1.27;;;1.17;;
8488;SDS011;4281;45.772;12.852;2023-05-18T06:18:06;1.10;;;0.80;;
8488;SDS011;4281;45.772;12.852;2023-05-18T06:20:38;1.07;;;0.97;;
8488;SDS011;4281;45.772;12.852;2023-05-18T06:23:06;1.47;;;1.17;;
8488;SDS011;4281;45.772;12.852;2023-05-18T06:25:34;0.83;;;0.83;;
8488;SDS011;4281;45.772;12.852;2023-05-18T06:28:01;2.40;;;1.20;;
8488;SDS011;4281;45.772;12.852;2023-05-18T06:30:29;1.00;;;1.00;;
8488;SDS011;4281;45.772;12.852;2023-05-18T06:32:59;0.87;;;0.80;;
8488;SDS011;4281;45.772;12.852;2023-05-18T06:35:27;1.10;;;0.87;;
8488;SDS011;4281;45.772;12.852;2023-05-18T06:37:55;0.80;;;0.80;;
8488;SDS011;4281;45.772;12.852;2023-05-18T06:40:23;0.90;;;0.87;;
8488;SDS011;4281;45.772;12.852;2023-05-18T06:42:51;1.73;;;0.97;;
8488;SDS011;4281;45.772;12.852;2023-05-18T06:45:19;1.43;;;1.00;;
8488;SDS011;4281;45.772;12.852;2023-05-18T06:47:47;1.40;;;1.30;;
8488;SDS011;4281;45.772;12.852;2023-05-18T06:50:16;1.33;;;1.20;;
8488;SDS011;4281;45.772;12.852;2023-05-18T06:52:44;1.10;;;0.97;;
8488;SDS011;4281;45.772;12.852;2023-05-18T06:55:12;1.40;;;0.90;;
8488;SDS011;4281;45.772;12.852;2023-05-18T06:57:40;1.10;;;1.00;;
8488;SDS011;4281;45.772;12.852;2023-05-18T07:00:08;1.13;;;1.00;;
8488;SDS011;4281;45.772;12.852;2023-05-18T07:02:37;1.20;;;1.00;;
8488;SDS011;4281;45.772;12.852;2023-05-18T07:05:06;1.00;;;1.00;;
8488;SDS011;4281;45.772;12.852;2023-05-18T07:07:36;0.87;;;0.73;;
8488;SDS011;4281;45.772;12.852;2023-05-18T07:10:04;1.10;;;0.97;;
8488;SDS011;4281;45.772;12.852;2023-05-18T07:12:33;1.23;;;0.90;;
8488;SDS011;4281;45.772;12.852;2023-05-18T07:15:01;1.27;;;1.17;;
8488;SDS011;4281;45.772;12.852;2023-05-18T07:17:29;1.87;;;0.90;;
8488;SDS011;4281;45.772;12.852;2023-05-18T07:19:57;0.70;;;0.70;;
8488;SDS011;4281;45.772;12.852;2023-05-18T07:22:25;1.20;;;0.90;;
8488;SDS011;4281;45.772;12.852;2023-05-18T07:24:54;1.07;;;0.97;;
8488;SDS011;4281;45.772;12.852;2023-05-18T07:27:23;1.47;;;0.90;;
8488;SDS011;4281;45.772;12.852;2023-05-18T07:29:51;0.80;;;0.80;;
8488;SDS011;4281;45.772;12.852;2023-05-18T07:32:19;1.40;;;1.07;;
8488;SDS011;4281;45.772;12.852;2023-05-18T07:34:47;1.23;;;1.13;;
8488;SDS011;4281;45.772;12.852;2023-05-18T07:37:15;0.87;;;0.87;;
8488;SDS011;4281;45.772;12.852;2023-05-18T07:39:43;2.00;;;0.90;;
8488;SDS011;4281;45.772;12.852;2023-05-18T07:42:13;1.03;;;0.90;;
8488;SDS011;4281;45.772;12.852;2023-05-18T07:44:41;0.70;;;0.70;;
8488;SDS011;4281;45.772;12.852;2023-05-18T07:47:09;0.80;;;0.80;;
8488;SDS011;4281;45.772;12.852;2023-05-18T07:49:37;0.80;;;0.80;;
8488;SDS011;4281;45.772;12.852;2023-05-18T07:52:05;1.07;;;0.77;;
8488;SDS011;4281;45.772;12.852;2023-05-18T07:54:33;2.23;;;0.80;;
8488;SDS011;4281;45.772;12.852;2023-05-18T07:57:01;0.93;;;0.87;;
8488;SDS011;4281;45.772;12.852;2023-05-18T07:59:32;1.63;;;0.83;;
8488;SDS011;4281;45.772;12.852;2023-05-18T08:02:00;1.13;;;1.03;;
8488;SDS011;4281;45.772;12.852;2023-05-18T08:04:28;1.30;;;1.20;;
8488;SDS011;4281;45.772;12.852;2023-05-18T08:06:56;0.90;;;0.90;;
8488;SDS011;4281;45.772;12.852;2023-05-18T08:09:26;1.10;;;1.00;;
8488;SDS011;4281;45.772;12.852;2023-05-18T08:11:53;0.80;;;0.80;;
8488;SDS011;4281;45.772;12.852;2023-05-18T08:14:22;0.70;;;0.70;;
8488;SDS011;4281;45.772;12.852;2023-05-18T08:16:51;1.00;;;0.80;;
8488;SDS011;4281;45.772;12.852;2023-05-18T08:19:19;1.33;;;0.80;;
8488;SDS011;4281;45.772;12.852;2023-05-18T08:21:47;0.80;;;0.80;;
8488;SDS011;4281;45.772;12.852;2023-05-18T08:24:15;0.97;;;0.70;;
8488;SDS011;4281;45.772;12.852;2023-05-18T08:26:43;0.80;;;0.70;;
8488;SDS011;4281;45.772;12.852;2023-05-18T08:29:11;1.00;;;0.90;;
8488;SDS011;4281;45.772;12.852;2023-05-18T08:31:39;0.70;;;0.70;;
8488;SDS011;4281;45.772;12.852;2023-05-18T08:34:09;1.00;;;0.70;;
8488;SDS011;4281;45.772;12.852;2023-05-18T08:36:36;0.70;;;0.70;;
8488;SDS011;4281;45.772;12.852;2023-05-18T08:39:06;1.57;;;0.87;;
8488;SDS011;4281;45.772;12.852;2023-05-18T08:41:35;0.70;;;0.70;;
8488;SDS011;4281;45.772;12.852;2023-05-18T08:44:07;0.90;;;0.90;;
8488;SDS011;4281;45.772;12.852;2023-05-18T08:46:39;0.97;;;0.87;;
8488;SDS011;4281;45.772;12.852;2023-05-18T08:49:09;0.73;;;0.73;;
8488;SDS011;4281;45.772;12.852;2023-05-18T08:51:37;0.93;;;0.70;;
8488;SDS011;4281;45.772;12.852;2023-05-18T08:54:07;0.83;;;0.80;;
8488;SDS011;4281;45.772;12.852;2023-05-18T08:56:35;1.00;;;0.90;;
8488;SDS011;4281;45.772;12.852;2023-05-18T08:59:04;1.10;;;0.83;;
8488;SDS011;4281;45.772;12.852;2023-05-18T09:01:33;1.00;;;0.80;;
8488;SDS011;4281;45.772;12.852;2023-05-18T09:04:02;1.37;;;0.73;;
8488;SDS011;4281;45.772;12.852;2023-05-18T09:06:32;0.70;;;0.70;;
8488;SDS011;4281;45.772;12.852;2023-05-18T09:09:01;0.70;;;0.70;;
8488;SDS011;4281;45.772;12.852;2023-05-18T09:11:31;1.93;;;0.73;;
8488;SDS011;4281;45.772;12.852;2023-05-18T09:14:00;1.10;;;0.80;;
8488;SDS011;4281;45.772;12.852;2023-05-18T09:16:28;0.70;;;0.67;;
8488;SDS011;4281;45.772;12.852;2023-05-18T09:18:56;0.83;;;0.70;;
8488;SDS011;4281;45.772;12.852;2023-05-18T09:21:24;1.50;;;0.80;;
8488;SDS011;4281;45.772;12.852;2023-05-18T09:23:54;0.90;;;0.90;;
8488;SDS011;4281;45.772;12.852;2023-05-18T09:26:21;0.70;;;0.70;;
8488;SDS011;4281;45.772;12.852;2023-05-18T09:28:50;1.00;;;0.90;;
8488;SDS011;4281;45.772;12.852;2023-05-18T09:31:19;1.03;;;0.93;;
8488;SDS011;4281;45.772;12.852;2023-05-18T09:33:50;0.87;;;0.80;;
8488;SDS011;4281;45.772;12.852;2023-05-18T09:36:23;1.03;;;0.70;;
8488;SDS011;4281;45.772;12.852;2023-05-18T09:38:51;0.80;;;0.80;;
8488;SDS011;4281;45.772;12.852;2023-05-18T09:41:20;1.33;;;0.97;;
8488;SDS011;4281;45.772;12.852;2023-05-18T09:43:53;1.00;;;0.80;;
8488;SDS011;4281;45.772;12.852;2023-05-18T09:46:21;0.80;;;0.80;;
8488;SDS011;4281;45.772;12.852;2023-05-18T09:48:49;0.90;;;0.90;;
8488;SDS011;4281;45.772;12.852;2023-05-18T09:51:18;1.00;;;0.90;;
8488;SDS011;4281;45.772;12.852;2023-05-18T09:53:52;1.00;;;0.80;;
8488;SDS011;4281;45.772;12.852;2023-05-18T09:56:21;1.00;;;0.90;;
8488;SDS011;4281;45.772;12.852;2023-05-18T09:58:49;0.60;;;0.60;;
8488;SDS011;4281;45.772;12.852;2023-05-18T10:01:17;1.00;;;0.90;;
8488;SDS011;4281;45.772;12.852;2023-05-18T10:03:45;1.10;;;1.00;;
8488;SDS011;4281;45.772;12.852;2023-05-18T10:06:15;1.37;;;1.17;;
8488;SDS011;4281;45.772;12.852;2023-05-18T10:08:45;0.90;;;0.90;;
8488;SDS011;4281;45.772;12.852;2023-05-18T10:11:15;1.50;;;1.07;;
8488;SDS011;4281;45.772;12.852;2023-05-18T10:13:51;1.23;;;1.07;;
8488;SDS011;4281;45.772;12.852;2023-05-18T10:16:21;1.10;;;0.90;;
8488;SDS011;4281;45.772;12.852;2023-05-18T10:18:50;1.73;;;1.00;;
8488;SDS011;4281;45.772;12.852;2023-05-18T10:21:19;0.90;;;0.80;;
8488;SDS011;4281;45.772;12.852;2023-05-18T10:23:48;0.73;;;0.73;;
8488;SDS011;4281;45.772;12.852;2023-05-18T10:26:18;0.80;;;0.70;;
8488;SDS011;4281;45.772;12.852;2023-05-18T10:28:51;1.57;;;0.90;;
8488;SDS011;4281;45.772;12.852;2023-05-18T10:31:20;0.90;;;0.70;;
8488;SDS011;4281;45.772;12.852;2023-05-18T10:33:50;1.40;;;0.80;;
8488;SDS011;4281;45.772;12.852;2023-05-18T10:36:18;0.80;;;0.77;;
8488;SDS011;4281;45.772;12.852;2023-05-18T10:38:47;0.70;;;0.70;;
8488;SDS011;4281;45.772;12.852;2023-05-18T10:41:17;0.70;;;0.70;;
8488;SDS011;4281;45.772;12.852;2023-05-18T10:43:45;2.17;;;0.87;;
8488;SDS011;4281;45.772;12.852;2023-05-18T10:46:14;0.80;;;0.80;;
8488;SDS011;4281;45.772;12.852;2023-05-18T10:48:44;0.90;;;0.70;;
8488;SDS011;4281;45.772;12.852;2023-05-18T10:51:14;0.73;;;0.73;;
8488;SDS011;4281;45.772;12.852;2023-05-18T10:53:43;0.80;;;0.80;;
8488;SDS011;4281;45.772;12.852;2023-05-18T10:56:13;0.70;;;0.70;;
8488;SDS011;4281;45.772;12.852;2023-05-18T10:58:42;1.20;;;0.80;;
8488;SDS011;4281;45.772;12.852;2023-05-18T11:01:11;0.83;;;0.83;;
8488;SDS011;4281;45.772;12.852;2023-05-18T11:03:41;0.90;;;0.90;;
8488;SDS011;4281;45.772;12.852;2023-05-18T11:06:10;2.03;;;1.00;;
8488;SDS011;4281;45.772;12.852;2023-05-18T11:08:44;0.93;;;0.90;;
8488;SDS011;4281;45.772;12.852;2023-05-18T11:11:13;1.00;;;0.90;;
8488;SDS011;4281;45.772;12.852;2023-05-18T11:13:46;0.80;;;0.80;;
8488;SDS011;4281;45.772;12.852;2023-05-18T11:16:15;1.00;;;0.87;;
8488;SDS011;4281;45.772;12.852;2023-05-18T11:18:45;0.80;;;0.80;;
8488;SDS011;4281;45.772;12.852;2023-05-18T11:21:19;0.93;;;0.83;;
8488;SDS011;4281;45.772;12.852;2023-05-18T11:24:12;1.47;;;0.80;;
8488;SDS011;4281;45.772;12.852;2023-05-18T11:26:41;1.00;;;0.90;;
8488;SDS011;4281;45.772;12.852;2023-05-18T11:29:20;0.90;;;0.90;;
8488;SDS011;4281;45.772;12.852;2023-05-18T11:31:50;1.03;;;0.90;;
8488;SDS011;4281;45.772;12.852;2023-05-18T11:34:38;1.20;;;1.10;;
8488;SDS011;4281;45.772;12.852;2023-05-18T11:37:10;1.00;;;1.00;;
8488;SDS011;4281;45.772;12.852;2023-05-18T11:39:39;1.20;;;1.10;;
8488;SDS011;4281;45.772;12.852;2023-05-18T11:42:23;1.30;;;0.97;;
8488;SDS011;4281;45.772;12.852;2023-05-18T11:44:59;1.40;;;0.90;;
8488;SDS011;4281;45.772;12.852;2023-05-18T11:47:33;1.30;;;1.20;;
8488;SDS011;4281;45.772;12.852;2023-05-18T11:50:03;0.83;;;0.80;;
8488;SDS011;4281;45.772;12.852;2023-05-18T11:52:34;1.10;;;1.00;;
8488;SDS011;4281;45.772;12.852;2023-05-18T11:55:12;1.53;;;0.90;;
8488;SDS011;4281;45.772;12.852;2023-05-18T11:57:41;1.50;;;1.13;;
8488;SDS011;4281;45.772;12.852;2023-05-18T12:00:11;1.03;;;0.80;;
8488;SDS011;4281;45.772;12.852;2023-05-18T12:02:41;1.20;;;0.90;;
8488;SDS011;4281;45.772;12.852;2023-05-18T12:05:11;0.90;;;0.90;;
8488;SDS011;4281;45.772;12.852;2023-05-18T12:07:39;1.40;;;1.10;;
8488;SDS011;4281;45.772;12.852;2023-05-18T12:10:09;0.90;;;0.90;;
8488;SDS011;4281;45.772;12.852;2023-05-18T12:12:38;1.20;;;0.87;;
8488;SDS011;4281;45.772;12.852;2023-05-18T12:15:07;0.90;;;0.90;;
8488;SDS011;4281;45.772;12.852;2023-05-18T12:17:38;1.37;;;0.83;;
8488;SDS011;4281;45.772;12.852;2023-05-18T12:20:07;0.80;;;0.80;;
8488;SDS011;4281;45.772;12.852;2023-05-18T12:22:38;1.50;;;1.10;;
8488;SDS011;4281;45.772;12.852;2023-05-18T12:25:07;1.13;;;0.90;;
8488;SDS011;4281;45.772;12.852;2023-05-18T12:27:36;1.17;;;1.00;;
8488;SDS011;4281;45.772;12.852;2023-05-18T12:30:05;0.90;;;0.90;;
8488;SDS011;4281;45.772;12.852;2023-05-18T12:32:37;1.00;;;1.00;;
8488;SDS011;4281;45.772;12.852;2023-05-18T12:35:05;1.67;;;0.97;;
8488;SDS011;4281;45.772;12.852;2023-05-18T12:37:41;1.20;;;1.07;;
8488;SDS011;4281;45.772;12.852;2023-05-18T12:40:12;1.20;;;1.03;;
8488;SDS011;4281;45.772;12.852;2023-05-18T12:42:49;1.50;;;1.00;;
8488;SDS011;4281;45.772;12.852;2023-05-18T12:45:18;1.13;;;1.03;;
8488;SDS011;4281;45.772;12.852;2023-05-18T12:47:48;0.90;;;0.90;;
8488;SDS011;4281;45.772;12.852;2023-05-18T12:50:20;1.30;;;0.90;;
8488;SDS011;4281;45.772;12.852;2023-05-18T12:52:50;1.20;;;1.10;;
8488;SDS011;4281;45.772;12.852;2023-05-18T12:55:18;0.90;;;0.90;;
8488;SDS011;4281;45.772;12.852;2023-05-18T12:57:58;1.30;;;0.93;;
8488;SDS011;4281;45.772;12.852;2023-05-18T13:00:30;0.80;;;0.80;;
8488;SDS011;4281;45.772;12.852;2023-05-18T13:03:03;1.20;;;1.00;;
8488;SDS011;4281;45.772;12.852;2023-05-18T13:05:32;1.40;;;1.10;;
8488;SDS011;4281;45.772;12.852;2023-05-18T13:08:01;1.10;;;1.00;;
8488;SDS011;4281;45.772;12.852;2023-05-18T13:10:31;1.20;;;1.00;;
8488;SDS011;4281;45.772;12.852;2023-05-18T13:12:59;1.30;;;1.10;;
8488;SDS011;4281;45.772;12.852;2023-05-18T13:15:31;1.53;;;0.90;;
8488;SDS011;4281;45.772;12.852;2023-05-18T13:18:00;1.13;;;1.03;;
8488;SDS011;4281;45.772;12.852;2023-05-18T13:20:30;1.10;;;1.10;;
8488;SDS011;4281;45.772;12.852;2023-05-18T13:23:03;1.10;;;1.03;;
8488;SDS011;4281;45.772;12.852;2023-05-18T13:25:32;1.60;;;1.13;;
8488;SDS011;4281;45.772;12.852;2023-05-18T13:28:00;1.20;;;1.10;;
8488;SDS011;4281;45.772;12.852;2023-05-18T13:30:28;1.00;;;1.00;;
8488;SDS011;4281;45.772;12.852;2023-05-18T13:32:56;1.37;;;0.93;;
8488;SDS011;4281;45.772;12.852;2023-05-18T13:35:24;1.00;;;1.00;;
8488;SDS011;4281;45.772;12.852;2023-05-18T13:37:52;1.37;;;1.03;;
8488;SDS011;4281;45.772;12.852;2023-05-18T13:40:22;1.13;;;1.03;;
8488;SDS011;4281;45.772;12.852;2023-05-18T13:42:51;1.20;;;1.10;;
8488;SDS011;4281;45.772;12.852;2023-05-18T13:45:19;1.20;;;1.10;;
8488;SDS011;4281;45.772;12.852;2023-05-18T13:47:47;1.57;;;1.07;;
8488;SDS011;4281;45.772;12.852;2023-05-18T13:50:17;1.17;;;1.07;;
8488;SDS011;4281;45.772;12.852;2023-05-18T13:52:46;1.17;;;1.10;;
8488;SDS011;4281;45.772;12.852;2023-05-18T13:55:14;1.10;;;1.00;;
8488;SDS011;4281;45.772;12.852;2023-05-18T13:57:44;1.50;;;1.40;;
8488;SDS011;4281;45.772;12.852;2023-05-18T14:00:12;1.53;;;1.20;;
8488;SDS011;4281;45.772;12.852;2023-05-18T14:02:43;1.40;;;1.30;;
8488;SDS011;4281;45.772;12.852;2023-05-18T14:05:11;1.50;;;1.33;;
8488;SDS011;4281;45.772;12.852;2023-05-18T14:07:40;1.57;;;1.40;;
8488;SDS011;4281;45.772;12.852;2023-05-18T14:10:09;1.50;;;1.40;;
8488;SDS011;4281;45.772;12.852;2023-05-18T14:12:38;1.50;;;1.40;;
8488;SDS011;4281;45.772;12.852;2023-05-18T14:15:09;1.87;;;1.47;;
8488;SDS011;4281;45.772;12.852;2023-05-18T14:17:39;1.30;;;1.17;;
8488;SDS011;4281;45.772;12.852;2023-05-18T14:20:08;2.73;;;1.47;;
8488;SDS011;4281;45.772;12.852;2023-05-18T14:22:36;2.13;;;1.30;;
8488;SDS011;4281;45.772;12.852;2023-05-18T14:25:04;1.50;;;1.40;;
8488;SDS011;4281;45.772;12.852;2023-05-18T14:27:32;1.43;;;1.33;;
8488;SDS011;4281;45.772;12.852;2023-05-18T14:30:00;2.47;;;1.53;;
8488;SDS011;4281;45.772;12.852;2023-05-18T14:32:30;1.40;;;1.30;;
8488;SDS011;4281;45.772;12.852;2023-05-18T14:34:58;1.70;;;1.60;;
8488;SDS011;4281;45.772;12.852;2023-05-18T14:37:26;2.77;;;1.50;;
8488;SDS011;4281;45.772;12.852;2023-05-18T14:39:54;1.50;;;1.40;;
8488;SDS011;4281;45.772;12.852;2023-05-18T14:42:22;1.70;;;1.60;;
8488;SDS011;4281;45.772;12.852;2023-05-18T14:44:49;1.57;;;1.47;;
8488;SDS011;4281;45.772;12.852;2023-05-18T14:47:17;2.03;;;1.40;;
8488;SDS011;4281;45.772;12.852;2023-05-18T14:49:47;1.60;;;1.50;;
8488;SDS011;4281;45.772;12.852;2023-05-18T14:52:15;2.20;;;1.57;;
8488;SDS011;4281;45.772;12.852;2023-05-18T14:54:43;1.90;;;1.70;;
8488;SDS011;4281;45.772;12.852;2023-05-18T14:57:13;2.43;;;1.80;;
8488;SDS011;4281;45.772;12.852;2023-05-18T14:59:40;1.70;;;1.60;;
8488;SDS011;4281;45.772;12.852;2023-05-18T15:02:09;1.50;;;1.40;;
8488;SDS011;4281;45.772;12.852;2023-05-18T15:04:37;1.60;;;1.50;;
8488;SDS011;4281;45.772;12.852;2023-05-18T15:07:06;2.20;;;1.60;;
8488;SDS011;4281;45.772;12.852;2023-05-18T15:09:34;1.90;;;1.60;;
8488;SDS011;4281;45.772;12.852;2023-05-18T15:12:03;1.50;;;1.40;;
8488;SDS011;4281;45.772;12.852;2023-05-18T15:14:31;2.50;;;1.50;;